PWSweather.com
Personal Weather Stations
Station Observations
WXGLH1124
Southern Oaks, Indianapolis, IN 46217

Southern OaksIndianapolis, IN 46217

Lat: 39.65113, Lon: -86.16866

Elevation: 720

Station Type: Vantage Pro2

High Low Average
Temperature 27.8°F-2.3°C 20.0°F-6.7°C 24.3°F-4.3°C
Dew Point 21.8°F-5.7°C 11.4°F-11.4°C 17.2°F-8.2°C
Winds 9.0 mph 14.5 kmh Calm Calm 2.0 mph WSW3.2 kmh WSW
Wind Gusts 11.0 mph17.7 kmh -- 3.0 mph4.8 kmh
Humidity 81% 64% 74%
Pressure 30.49 in1032.5 mb 30.39 in1029.1 mb -
Precipitation 0.00 in0.0 mm - -
Hour Temp Dew Point Humidity Winds Wind Gusts Pressure Precip Precip Rate Daily Precip Total
12:00 AM 21.9°F-5.6°C 13.0°F-10.6°C 68% 9.0 mph N14.5 kmh N 10.0 mph16.1 kmh 30.39 in1029.1 mb 0.00 in0.0 mm 0.00 in0.0 mm 0.00 in0.0 mm
12:05 AM 22.0°F-5.6°C 12.7°F-10.7°C 67% 11.0 mph N17.7 kmh N 13.0 mph20.9 kmh 30.39 in1029.1 mb 0.00 in0.0 mm 0.00 in0.0 mm 0.00 in0.0 mm
12:10 AM 21.9°F-5.6°C 12.6°F-10.8°C 67% 9.0 mph NW14.5 kmh NW 14.0 mph22.5 kmh 30.39 in1029.1 mb 0.00 in0.0 mm 0.00 in0.0 mm 0.00 in0.0 mm
12:14 AM 21.9°F-5.6°C 13.0°F-10.6°C 68% 9.0 mph N14.5 kmh N 9.0 mph14.5 kmh 30.40 in1029.5 mb 0.00 in0.0 mm 0.00 in0.0 mm 0.00 in0.0 mm
12:19 AM 21.8°F-5.7°C 12.9°F-10.6°C 68% 3.0 mph NNW4.8 kmh NNW 8.0 mph12.9 kmh 30.40 in1029.5 mb 0.00 in0.0 mm 0.00 in0.0 mm 0.00 in0.0 mm
12:25 AM 21.8°F-5.7°C 12.9°F-10.6°C 68% 2.0 mph N3.2 kmh N 11.0 mph17.7 kmh 30.39 in1029.1 mb 0.00 in0.0 mm 0.00 in0.0 mm 0.00 in0.0 mm
12:29 AM 21.8°F-5.7°C 12.9°F-10.6°C 68% 11.0 mph NW17.7 kmh NW 11.0 mph17.7 kmh 30.40 in1029.5 mb 0.00 in0.0 mm 0.00 in0.0 mm 0.00 in0.0 mm
12:34 AM 21.8°F-5.7°C 12.9°F-10.6°C 68% 4.0 mph N6.4 kmh N 9.0 mph14.5 kmh 30.40 in1029.5 mb 0.00 in0.0 mm 0.00 in0.0 mm 0.00 in0.0 mm
12:40 AM 21.7°F-5.7°C 12.5°F-10.8°C 67% 5.0 mph NNW8.0 kmh NNW 12.0 mph19.3 kmh 30.39 in1029.1 mb 0.00 in0.0 mm 0.00 in0.0 mm 0.00 in0.0 mm
12:44 AM 21.7°F-5.7°C 12.5°F-10.8°C 67% 12.0 mph NW19.3 kmh NW 14.0 mph22.5 kmh 30.39 in1029.1 mb 0.00 in0.0 mm 0.00 in0.0 mm 0.00 in0.0 mm
12:50 AM 21.7°F-5.7°C 12.1°F-11.1°C 66% 11.0 mph N17.7 kmh N 11.0 mph17.7 kmh 30.39 in1029.1 mb 0.00 in0.0 mm 0.00 in0.0 mm 0.00 in0.0 mm
12:55 AM 21.7°F-5.7°C 12.1°F-11.1°C 66% 9.0 mph N14.5 kmh N 9.0 mph14.5 kmh 30.39 in1029.1 mb 0.00 in0.0 mm 0.00 in0.0 mm 0.00 in0.0 mm
01:00 AM 21.7°F-5.7°C 11.8°F-11.2°C 65% 5.0 mph N8.0 kmh N 10.0 mph16.1 kmh 30.39 in1029.1 mb 0.00 in0.0 mm 0.00 in0.0 mm 0.00 in0.0 mm
01:05 AM 21.7°F-5.7°C 11.8°F-11.2°C 65% 4.0 mph NNE6.4 kmh NNE 10.0 mph16.1 kmh 30.40 in1029.5 mb 0.00 in0.0 mm 0.00 in0.0 mm 0.00 in0.0 mm
01:09 AM 21.8°F-5.7°C 11.9°F-11.2°C 65% 5.0 mph N8.0 kmh N 11.0 mph17.7 kmh 30.40 in1029.5 mb 0.00 in0.0 mm 0.00 in0.0 mm 0.00 in0.0 mm
01:15 AM 21.7°F-5.7°C 11.8°F-11.2°C 65% 5.0 mph NNW8.0 kmh NNW 8.0 mph12.9 kmh 30.40 in1029.5 mb 0.00 in0.0 mm 0.00 in0.0 mm 0.00 in0.0 mm
01:19 AM 21.7°F-5.7°C 11.8°F-11.2°C 65% 5.0 mph NNW8.0 kmh NNW 9.0 mph14.5 kmh 30.39 in1029.1 mb 0.00 in0.0 mm 0.00 in0.0 mm 0.00 in0.0 mm
01:25 AM 21.7°F-5.7°C 11.8°F-11.2°C 65% 9.0 mph NNW14.5 kmh NNW 9.0 mph14.5 kmh 30.40 in1029.5 mb 0.00 in0.0 mm 0.00 in0.0 mm 0.00 in0.0 mm
01:29 AM 21.8°F-5.7°C 11.9°F-11.2°C 65% 3.0 mph N4.8 kmh N 8.0 mph12.9 kmh 30.40 in1029.5 mb 0.00 in0.0 mm 0.00 in0.0 mm 0.00 in0.0 mm
01:35 AM 21.8°F-5.7°C 11.9°F-11.2°C 65% 5.0 mph N8.0 kmh N 9.0 mph14.5 kmh 30.39 in1029.1 mb 0.00 in0.0 mm 0.00 in0.0 mm 0.00 in0.0 mm
01:40 AM 21.7°F-5.7°C 12.1°F-11.1°C 66% 6.0 mph NNW9.7 kmh NNW 9.0 mph14.5 kmh 30.40 in1029.5 mb 0.00 in0.0 mm 0.00 in0.0 mm 0.00 in0.0 mm
01:44 AM 21.7°F-5.7°C 11.8°F-11.2°C 65% 5.0 mph NNW8.0 kmh NNW 8.0 mph12.9 kmh 30.39 in1029.1 mb 0.00 in0.0 mm 0.00 in0.0 mm 0.00 in0.0 mm
01:50 AM 21.7°F-5.7°C 12.1°F-11.1°C 66% 4.0 mph NW6.4 kmh NW 8.0 mph12.9 kmh 30.40 in1029.5 mb 0.00 in0.0 mm 0.00 in0.0 mm 0.00 in0.0 mm
01:55 AM 21.7°F-5.7°C 12.1°F-11.1°C 66% 3.0 mph NNW4.8 kmh NNW 5.0 mph8.0 kmh 30.40 in1029.5 mb 0.00 in0.0 mm 0.00 in0.0 mm 0.00 in0.0 mm
02:00 AM 21.8°F-5.7°C 12.2°F-11.0°C 66% 5.0 mph N8.0 kmh N 6.0 mph9.7 kmh 30.39 in1029.1 mb 0.00 in0.0 mm 0.00 in0.0 mm 0.00 in0.0 mm
02:05 AM 21.8°F-5.7°C 12.2°F-11.0°C 66% 4.0 mph N6.4 kmh N 8.0 mph12.9 kmh 30.40 in1029.5 mb 0.00 in0.0 mm 0.00 in0.0 mm 0.00 in0.0 mm
02:10 AM 21.8°F-5.7°C 12.5°F-10.8°C 67% 7.0 mph N11.3 kmh N 7.0 mph11.3 kmh 30.40 in1029.5 mb 0.00 in0.0 mm 0.00 in0.0 mm 0.00 in0.0 mm
02:14 AM 21.9°F-5.6°C 12.6°F-10.8°C 67% 2.0 mph N3.2 kmh N 5.0 mph8.0 kmh 30.40 in1029.5 mb 0.00 in0.0 mm 0.00 in0.0 mm 0.00 in0.0 mm
02:19 AM 21.9°F-5.6°C 12.6°F-10.8°C 67% 3.0 mph NW4.8 kmh NW 5.0 mph8.0 kmh 30.40 in1029.5 mb 0.00 in0.0 mm 0.00 in0.0 mm 0.00 in0.0 mm
02:25 AM 21.9°F-5.6°C 12.6°F-10.8°C 67% 1.0 mph N1.6 kmh N 6.0 mph9.7 kmh 30.40 in1029.5 mb 0.00 in0.0 mm 0.00 in0.0 mm 0.00 in0.0 mm
02:30 AM 22.0°F-5.6°C 12.7°F-10.7°C 67% 2.0 mph NNW3.2 kmh NNW 4.0 mph6.4 kmh 30.40 in1029.5 mb 0.00 in0.0 mm 0.00 in0.0 mm 0.00 in0.0 mm
02:35 AM 22.0°F-5.6°C 12.7°F-10.7°C 67% 4.0 mph NNW6.4 kmh NNW 8.0 mph12.9 kmh 30.40 in1029.5 mb 0.00 in0.0 mm 0.00 in0.0 mm 0.00 in0.0 mm
02:40 AM 21.9°F-5.6°C 12.3°F-10.9°C 66% 2.0 mph N3.2 kmh N 6.0 mph9.7 kmh 30.41 in1029.8 mb 0.00 in0.0 mm 0.00 in0.0 mm 0.00 in0.0 mm
02:45 AM 21.9°F-5.6°C 12.3°F-10.9°C 66% 1.0 mph N1.6 kmh N 8.0 mph12.9 kmh 30.41 in1029.8 mb 0.00 in0.0 mm 0.00 in0.0 mm 0.00 in0.0 mm
02:50 AM 21.8°F-5.7°C 12.2°F-11.0°C 66% 4.0 mph NNE6.4 kmh NNE 8.0 mph12.9 kmh 30.41 in1029.8 mb 0.00 in0.0 mm 0.00 in0.0 mm 0.00 in0.0 mm
02:55 AM 21.8°F-5.7°C 11.9°F-11.2°C 65% 4.0 mph N6.4 kmh N 8.0 mph12.9 kmh 30.41 in1029.8 mb 0.00 in0.0 mm 0.00 in0.0 mm 0.00 in0.0 mm
03:00 AM 21.8°F-5.7°C 11.9°F-11.2°C 65% 3.0 mph N4.8 kmh N 5.0 mph8.0 kmh 30.40 in1029.5 mb 0.00 in0.0 mm 0.00 in0.0 mm 0.00 in0.0 mm
03:05 AM 21.8°F-5.7°C 11.9°F-11.2°C 65% 4.0 mph NW6.4 kmh NW 7.0 mph11.3 kmh 30.41 in1029.8 mb 0.00 in0.0 mm 0.00 in0.0 mm 0.00 in0.0 mm
03:10 AM 21.8°F-5.7°C 11.5°F-11.4°C 64% 3.0 mph NNW4.8 kmh NNW 4.0 mph6.4 kmh 30.41 in1029.8 mb 0.00 in0.0 mm 0.00 in0.0 mm 0.00 in0.0 mm
03:15 AM 21.8°F-5.7°C 11.5°F-11.4°C 64% 6.0 mph NNW9.7 kmh NNW 8.0 mph12.9 kmh 30.41 in1029.8 mb 0.00 in0.0 mm 0.00 in0.0 mm 0.00 in0.0 mm
03:20 AM 21.8°F-5.7°C 11.5°F-11.4°C 64% 3.0 mph NNW4.8 kmh NNW 8.0 mph12.9 kmh 30.41 in1029.8 mb 0.00 in0.0 mm 0.00 in0.0 mm 0.00 in0.0 mm
03:25 AM 21.7°F-5.7°C 11.4°F-11.4°C 64% 3.0 mph NNW4.8 kmh NNW 6.0 mph9.7 kmh 30.41 in1029.8 mb 0.00 in0.0 mm 0.00 in0.0 mm 0.00 in0.0 mm
03:30 AM 21.7°F-5.7°C 11.8°F-11.2°C 65% Calm Calm 2.0 mph3.2 kmh 30.42 in1030.1 mb 0.00 in0.0 mm 0.00 in0.0 mm 0.00 in0.0 mm
03:35 AM 21.6°F-5.8°C 12.0°F-11.1°C 66% 1.0 mph NNW1.6 kmh NNW 3.0 mph4.8 kmh 30.42 in1030.1 mb 0.00 in0.0 mm 0.00 in0.0 mm 0.00 in0.0 mm
03:40 AM 21.5°F-5.8°C 11.9°F-11.2°C 66% 1.0 mph NNW1.6 kmh NNW 3.0 mph4.8 kmh 30.42 in1030.1 mb 0.00 in0.0 mm 0.00 in0.0 mm 0.00 in0.0 mm
03:45 AM 21.4°F-5.9°C 11.8°F-11.2°C 66% 1.0 mph NNW1.6 kmh NNW 3.0 mph4.8 kmh 30.42 in1030.1 mb 0.00 in0.0 mm 0.00 in0.0 mm 0.00 in0.0 mm
03:50 AM 21.3°F-5.9°C 12.1°F-11.1°C 67% 2.0 mph NNW3.2 kmh NNW 2.0 mph3.2 kmh 30.42 in1030.1 mb 0.00 in0.0 mm 0.00 in0.0 mm 0.00 in0.0 mm
03:55 AM 21.3°F-5.9°C 12.1°F-11.1°C 67% 1.0 mph NNW1.6 kmh NNW 2.0 mph3.2 kmh 30.42 in1030.1 mb 0.00 in0.0 mm 0.00 in0.0 mm 0.00 in0.0 mm
04:00 AM 21.2°F-6.0°C 12.3°F-10.9°C 68% 1.0 mph NNW1.6 kmh NNW 3.0 mph4.8 kmh 30.42 in1030.1 mb 0.00 in0.0 mm 0.00 in0.0 mm 0.00 in0.0 mm
04:04 AM 21.2°F-6.0°C 12.3°F-10.9°C 68% Calm Calm 2.0 mph3.2 kmh 30.42 in1030.1 mb 0.00 in0.0 mm 0.00 in0.0 mm 0.00 in0.0 mm
04:10 AM 21.2°F-6.0°C 12.3°F-10.9°C 68% 1.0 mph NNW1.6 kmh NNW 3.0 mph4.8 kmh 30.42 in1030.1 mb 0.00 in0.0 mm 0.00 in0.0 mm 0.00 in0.0 mm
04:15 AM 21.1°F-6.1°C 12.2°F-11.0°C 68% 2.0 mph NNW3.2 kmh NNW 2.0 mph3.2 kmh 30.42 in1030.1 mb 0.00 in0.0 mm 0.00 in0.0 mm 0.00 in0.0 mm
04:20 AM 21.1°F-6.1°C 12.5°F-10.8°C 69% Calm Calm 1.0 mph1.6 kmh 30.42 in1030.1 mb 0.00 in0.0 mm 0.00 in0.0 mm 0.00 in0.0 mm
04:24 AM 21.1°F-6.1°C 12.5°F-10.8°C 69% 1.0 mph NNW1.6 kmh NNW 2.0 mph3.2 kmh 30.42 in1030.1 mb 0.00 in0.0 mm 0.00 in0.0 mm 0.00 in0.0 mm
04:30 AM 21.0°F-6.1°C 12.8°F-10.7°C 70% 1.0 mph NNW1.6 kmh NNW 1.0 mph1.6 kmh 30.42 in1030.1 mb 0.00 in0.0 mm 0.00 in0.0 mm 0.00 in0.0 mm
04:34 AM 21.0°F-6.1°C 12.8°F-10.7°C 70% Calm Calm 3.0 mph4.8 kmh 30.42 in1030.1 mb 0.00 in0.0 mm 0.00 in0.0 mm 0.00 in0.0 mm
04:40 AM 20.9°F-6.2°C 12.7°F-10.7°C 70% 1.0 mph NW1.6 kmh NW 4.0 mph6.4 kmh 30.42 in1030.1 mb 0.00 in0.0 mm 0.00 in0.0 mm 0.00 in0.0 mm
04:45 AM 20.9°F-6.2°C 12.7°F-10.7°C 70% 1.0 mph NW1.6 kmh NW 3.0 mph4.8 kmh 30.42 in1030.1 mb 0.00 in0.0 mm 0.00 in0.0 mm 0.00 in0.0 mm
04:49 AM 20.9°F-6.2°C 12.7°F-10.7°C 70% Calm Calm 2.0 mph3.2 kmh 30.42 in1030.1 mb 0.00 in0.0 mm 0.00 in0.0 mm 0.00 in0.0 mm
04:54 AM 20.9°F-6.2°C 13.0°F-10.6°C 71% Calm Calm 3.0 mph4.8 kmh 30.42 in1030.1 mb 0.00 in0.0 mm 0.00 in0.0 mm 0.00 in0.0 mm
05:00 AM 20.8°F-6.2°C 12.9°F-10.6°C 71% 2.0 mph W3.2 kmh W 3.0 mph4.8 kmh 30.42 in1030.1 mb 0.00 in0.0 mm 0.00 in0.0 mm 0.00 in0.0 mm
05:04 AM 20.8°F-6.2°C 12.9°F-10.6°C 71% Calm Calm 4.0 mph6.4 kmh 30.42 in1030.1 mb 0.00 in0.0 mm 0.00 in0.0 mm 0.00 in0.0 mm
05:10 AM 20.7°F-6.3°C 13.4°F-10.3°C 73% 4.0 mph W6.4 kmh W 4.0 mph6.4 kmh 30.42 in1030.1 mb 0.00 in0.0 mm 0.00 in0.0 mm 0.00 in0.0 mm
05:15 AM 20.6°F-6.3°C 13.3°F-10.4°C 73% 1.0 mph W1.6 kmh W 4.0 mph6.4 kmh 30.42 in1030.1 mb 0.00 in0.0 mm 0.00 in0.0 mm 0.00 in0.0 mm
05:20 AM 20.5°F-6.4°C 13.2°F-10.4°C 73% 2.0 mph W3.2 kmh W 2.0 mph3.2 kmh 30.42 in1030.1 mb 0.00 in0.0 mm 0.00 in0.0 mm 0.00 in0.0 mm
05:25 AM 20.5°F-6.4°C 13.2°F-10.4°C 73% Calm Calm 2.0 mph3.2 kmh 30.42 in1030.1 mb 0.00 in0.0 mm 0.00 in0.0 mm 0.00 in0.0 mm
05:30 AM 20.5°F-6.4°C 13.5°F-10.3°C 74% 2.0 mph W3.2 kmh W 3.0 mph4.8 kmh 30.41 in1029.8 mb 0.00 in0.0 mm 0.00 in0.0 mm 0.00 in0.0 mm
05:35 AM 20.4°F-6.4°C 13.5°F-10.3°C 74% Calm Calm 4.0 mph6.4 kmh 30.41 in1029.8 mb 0.00 in0.0 mm 0.00 in0.0 mm 0.00 in0.0 mm
05:40 AM 20.3°F-6.5°C 13.4°F-10.3°C 74% Calm Calm 2.0 mph3.2 kmh 30.41 in1029.8 mb 0.00 in0.0 mm 0.00 in0.0 mm 0.00 in0.0 mm
05:45 AM 20.3°F-6.5°C 13.7°F-10.2°C 75% 1.0 mph W1.6 kmh W 2.0 mph3.2 kmh 30.41 in1029.8 mb 0.00 in0.0 mm 0.00 in0.0 mm 0.00 in0.0 mm
05:50 AM 20.2°F-6.6°C 13.6°F-10.2°C 75% Calm Calm 3.0 mph4.8 kmh 30.41 in1029.8 mb 0.00 in0.0 mm 0.00 in0.0 mm 0.00 in0.0 mm
05:55 AM 20.1°F-6.6°C 13.5°F-10.3°C 75% Calm Calm 6.0 mph9.7 kmh 30.41 in1029.8 mb 0.00 in0.0 mm 0.00 in0.0 mm 0.00 in0.0 mm
05:59 AM 20.0°F-6.7°C 13.4°F-10.3°C 75% Calm Calm 3.0 mph4.8 kmh 30.41 in1029.8 mb 0.00 in0.0 mm 0.00 in0.0 mm 0.00 in0.0 mm
06:05 AM 20.0°F-6.7°C 13.7°F-10.2°C 76% 1.0 mph W1.6 kmh W 3.0 mph4.8 kmh 30.41 in1029.8 mb 0.00 in0.0 mm 0.00 in0.0 mm 0.00 in0.0 mm
06:10 AM 20.0°F-6.7°C 13.7°F-10.2°C 76% Calm Calm 2.0 mph3.2 kmh 30.41 in1029.8 mb 0.00 in0.0 mm 0.00 in0.0 mm 0.00 in0.0 mm
06:15 AM 20.0°F-6.7°C 13.7°F-10.2°C 76% Calm Calm 3.0 mph4.8 kmh 30.41 in1029.8 mb 0.00 in0.0 mm 0.00 in0.0 mm 0.00 in0.0 mm
06:20 AM 20.0°F-6.7°C 13.7°F-10.2°C 76% 1.0 mph W1.6 kmh W 3.0 mph4.8 kmh 30.41 in1029.8 mb 0.00 in0.0 mm 0.00 in0.0 mm 0.00 in0.0 mm
06:24 AM 20.0°F-6.7°C 13.7°F-10.2°C 76% 1.0 mph W1.6 kmh W 4.0 mph6.4 kmh 30.41 in1029.8 mb 0.00 in0.0 mm 0.00 in0.0 mm 0.00 in0.0 mm
06:30 AM 20.1°F-6.6°C 13.8°F-10.1°C 76% Calm Calm 1.0 mph1.6 kmh 30.41 in1029.8 mb 0.00 in0.0 mm 0.00 in0.0 mm 0.00 in0.0 mm
06:35 AM 20.1°F-6.6°C 13.8°F-10.1°C 76% 3.0 mph W4.8 kmh W 4.0 mph6.4 kmh 30.41 in1029.8 mb 0.00 in0.0 mm 0.00 in0.0 mm 0.00 in0.0 mm
06:39 AM 20.2°F-6.6°C 13.6°F-10.2°C 75% 1.0 mph W1.6 kmh W 3.0 mph4.8 kmh 30.41 in1029.8 mb 0.00 in0.0 mm 0.00 in0.0 mm 0.00 in0.0 mm
06:45 AM 20.2°F-6.6°C 13.6°F-10.2°C 75% 2.0 mph W3.2 kmh W 2.0 mph3.2 kmh 30.41 in1029.8 mb 0.00 in0.0 mm 0.00 in0.0 mm 0.00 in0.0 mm
06:50 AM 20.2°F-6.6°C 13.6°F-10.2°C 75% 3.0 mph W4.8 kmh W 3.0 mph4.8 kmh 30.42 in1030.1 mb 0.00 in0.0 mm 0.00 in0.0 mm 0.00 in0.0 mm
06:55 AM 20.2°F-6.6°C 13.6°F-10.2°C 75% 1.0 mph W1.6 kmh W 3.0 mph4.8 kmh 30.42 in1030.1 mb 0.00 in0.0 mm 0.00 in0.0 mm 0.00 in0.0 mm
07:00 AM 20.2°F-6.6°C 13.6°F-10.2°C 75% 1.0 mph W1.6 kmh W 4.0 mph6.4 kmh 30.42 in1030.1 mb 0.00 in0.0 mm 0.00 in0.0 mm 0.00 in0.0 mm
07:05 AM 20.2°F-6.6°C 13.6°F-10.2°C 75% 1.0 mph W1.6 kmh W 3.0 mph4.8 kmh 30.42 in1030.1 mb 0.00 in0.0 mm 0.00 in0.0 mm 0.00 in0.0 mm
07:10 AM 20.2°F-6.6°C 13.6°F-10.2°C 75% Calm Calm 4.0 mph6.4 kmh 30.42 in1030.1 mb 0.00 in0.0 mm 0.00 in0.0 mm 0.00 in0.0 mm
07:14 AM 20.2°F-6.6°C 13.6°F-10.2°C 75% Calm Calm 2.0 mph3.2 kmh 30.42 in1030.1 mb 0.00 in0.0 mm 0.00 in0.0 mm 0.00 in0.0 mm
07:20 AM 20.3°F-6.5°C 14.0°F-10.0°C 76% 2.0 mph W3.2 kmh W 2.0 mph3.2 kmh 30.43 in1030.5 mb 0.00 in0.0 mm 0.00 in0.0 mm 0.00 in0.0 mm
07:25 AM 20.3°F-6.5°C 13.7°F-10.2°C 75% 1.0 mph W1.6 kmh W 3.0 mph4.8 kmh 30.43 in1030.5 mb 0.00 in0.0 mm 0.00 in0.0 mm 0.00 in0.0 mm
07:30 AM 20.4°F-6.4°C 13.8°F-10.1°C 75% 2.0 mph NNW3.2 kmh NNW 5.0 mph8.0 kmh 30.43 in1030.5 mb 0.00 in0.0 mm 0.00 in0.0 mm 0.00 in0.0 mm
07:35 AM 20.5°F-6.4°C 13.9°F-10.1°C 75% 4.0 mph NW6.4 kmh NW 4.0 mph6.4 kmh 30.43 in1030.5 mb 0.00 in0.0 mm 0.00 in0.0 mm 0.00 in0.0 mm
07:40 AM 20.6°F-6.3°C 14.0°F-10.0°C 75% 1.0 mph NNW1.6 kmh NNW 5.0 mph8.0 kmh 30.43 in1030.5 mb 0.00 in0.0 mm 0.00 in0.0 mm 0.00 in0.0 mm
07:45 AM 20.6°F-6.3°C 14.0°F-10.0°C 75% 2.0 mph NNW3.2 kmh NNW 3.0 mph4.8 kmh 30.43 in1030.5 mb 0.00 in0.0 mm 0.00 in0.0 mm 0.00 in0.0 mm
07:50 AM 20.7°F-6.3°C 14.0°F-10.0°C 75% 2.0 mph NNW3.2 kmh NNW 3.0 mph4.8 kmh 30.44 in1030.8 mb 0.00 in0.0 mm 0.00 in0.0 mm 0.00 in0.0 mm
07:54 AM 20.7°F-6.3°C 14.0°F-10.0°C 75% 1.0 mph NW1.6 kmh NW 4.0 mph6.4 kmh 30.44 in1030.8 mb 0.00 in0.0 mm 0.00 in0.0 mm 0.00 in0.0 mm
08:00 AM 20.7°F-6.3°C 14.0°F-10.0°C 75% 2.0 mph NW3.2 kmh NW 3.0 mph4.8 kmh 30.44 in1030.8 mb 0.00 in0.0 mm 0.00 in0.0 mm 0.00 in0.0 mm
08:05 AM 20.8°F-6.2°C 13.8°F-10.1°C 74% 5.0 mph NNW8.0 kmh NNW 5.0 mph8.0 kmh 30.44 in1030.8 mb 0.00 in0.0 mm 0.00 in0.0 mm 0.00 in0.0 mm
08:10 AM 20.8°F-6.2°C 13.8°F-10.1°C 74% 2.0 mph NNW3.2 kmh NNW 3.0 mph4.8 kmh 30.44 in1030.8 mb 0.00 in0.0 mm 0.00 in0.0 mm 0.00 in0.0 mm
08:15 AM 20.8°F-6.2°C 13.8°F-10.1°C 74% 2.0 mph NNW3.2 kmh NNW 3.0 mph4.8 kmh 30.44 in1030.8 mb 0.00 in0.0 mm 0.00 in0.0 mm 0.00 in0.0 mm
08:20 AM 20.8°F-6.2°C 13.8°F-10.1°C 74% Calm Calm 2.0 mph3.2 kmh 30.44 in1030.8 mb 0.00 in0.0 mm 0.00 in0.0 mm 0.00 in0.0 mm
08:25 AM 20.9°F-6.2°C 14.2°F-9.9°C 75% 3.0 mph NNW4.8 kmh NNW 3.0 mph4.8 kmh 30.44 in1030.8 mb 0.00 in0.0 mm 0.00 in0.0 mm 0.00 in0.0 mm
08:30 AM 20.9°F-6.2°C 14.2°F-9.9°C 75% Calm Calm 1.0 mph1.6 kmh 30.44 in1030.8 mb 0.00 in0.0 mm 0.00 in0.0 mm 0.00 in0.0 mm
08:35 AM 20.9°F-6.2°C 14.2°F-9.9°C 75% Calm Calm 1.0 mph1.6 kmh 30.45 in1031.2 mb 0.00 in0.0 mm 0.00 in0.0 mm 0.00 in0.0 mm
08:40 AM 20.9°F-6.2°C 14.2°F-9.9°C 75% Calm Calm 1.0 mph1.6 kmh 30.45 in1031.2 mb 0.00 in0.0 mm 0.00 in0.0 mm 0.00 in0.0 mm
08:45 AM 21.0°F-6.1°C 14.3°F-9.8°C 75% 1.0 mph NNW1.6 kmh NNW 3.0 mph4.8 kmh 30.45 in1031.2 mb 0.00 in0.0 mm 0.00 in0.0 mm 0.00 in0.0 mm
08:50 AM 21.0°F-6.1°C 14.3°F-9.8°C 75% Calm Calm 5.0 mph8.0 kmh 30.45 in1031.2 mb 0.00 in0.0 mm 0.00 in0.0 mm 0.00 in0.0 mm
08:55 AM 20.9°F-6.2°C 14.2°F-9.9°C 75% 1.0 mph NW1.6 kmh NW 4.0 mph6.4 kmh 30.45 in1031.2 mb 0.00 in0.0 mm 0.00 in0.0 mm 0.00 in0.0 mm
09:00 AM 20.9°F-6.2°C 14.2°F-9.9°C 75% 2.0 mph NW3.2 kmh NW 3.0 mph4.8 kmh 30.45 in1031.2 mb 0.00 in0.0 mm 0.00 in0.0 mm 0.00 in0.0 mm
09:04 AM 20.9°F-6.2°C 14.2°F-9.9°C 75% 3.0 mph NW4.8 kmh NW 3.0 mph4.8 kmh 30.44 in1030.8 mb 0.00 in0.0 mm 0.00 in0.0 mm 0.00 in0.0 mm
09:10 AM 20.9°F-6.2°C 14.2°F-9.9°C 75% 1.0 mph NW1.6 kmh NW 2.0 mph3.2 kmh 30.45 in1031.2 mb 0.00 in0.0 mm 0.00 in0.0 mm 0.00 in0.0 mm
09:15 AM 21.0°F-6.1°C 14.3°F-9.8°C 75% 1.0 mph NW1.6 kmh NW 2.0 mph3.2 kmh 30.44 in1030.8 mb 0.00 in0.0 mm 0.00 in0.0 mm 0.00 in0.0 mm
09:19 AM 21.0°F-6.1°C 14.3°F-9.8°C 75% Calm Calm 2.0 mph3.2 kmh 30.44 in1030.8 mb 0.00 in0.0 mm 0.00 in0.0 mm 0.00 in0.0 mm
09:25 AM 21.1°F-6.1°C 14.7°F-9.6°C 76% Calm Calm -- 30.44 in1030.8 mb 0.00 in0.0 mm 0.00 in0.0 mm 0.00 in0.0 mm
09:30 AM 21.2°F-6.0°C 14.8°F-9.6°C 76% Calm Calm -- 30.45 in1031.2 mb 0.00 in0.0 mm 0.00 in0.0 mm 0.00 in0.0 mm
09:35 AM 21.2°F-6.0°C 14.8°F-9.6°C 76% Calm Calm -- 30.45 in1031.2 mb 0.00 in0.0 mm 0.00 in0.0 mm 0.00 in0.0 mm
09:40 AM 21.3°F-5.9°C 14.9°F-9.5°C 76% Calm Calm -- 30.45 in1031.2 mb 0.00 in0.0 mm 0.00 in0.0 mm 0.00 in0.0 mm
09:45 AM 21.4°F-5.9°C 15.0°F-9.4°C 76% 5.0 mph NW8.0 kmh NW 5.0 mph8.0 kmh 30.45 in1031.2 mb 0.00 in0.0 mm 0.00 in0.0 mm 0.00 in0.0 mm
09:50 AM 21.5°F-5.8°C 15.1°F-9.4°C 76% Calm Calm 3.0 mph4.8 kmh 30.45 in1031.2 mb 0.00 in0.0 mm 0.00 in0.0 mm 0.00 in0.0 mm
09:55 AM 21.6°F-5.8°C 15.2°F-9.3°C 76% Calm Calm 2.0 mph3.2 kmh 30.45 in1031.2 mb 0.00 in0.0 mm 0.00 in0.0 mm 0.00 in0.0 mm
09:59 AM 21.6°F-5.8°C 15.2°F-9.3°C 76% Calm Calm 1.0 mph1.6 kmh 30.46 in1031.5 mb 0.00 in0.0 mm 0.00 in0.0 mm 0.00 in0.0 mm
10:04 AM 21.7°F-5.7°C 15.3°F-9.3°C 76% Calm Calm -- 30.45 in1031.2 mb 0.00 in0.0 mm 0.00 in0.0 mm 0.00 in0.0 mm
10:10 AM 21.8°F-5.7°C 15.1°F-9.4°C 75% Calm Calm 1.0 mph1.6 kmh 30.45 in1031.2 mb 0.00 in0.0 mm 0.00 in0.0 mm 0.00 in0.0 mm
10:15 AM 21.8°F-5.7°C 15.4°F-9.2°C 76% Calm Calm 2.0 mph3.2 kmh 30.46 in1031.5 mb 0.00 in0.0 mm 0.00 in0.0 mm 0.00 in0.0 mm
10:20 AM 22.0°F-5.6°C 15.6°F-9.1°C 76% Calm Calm -- 30.46 in1031.5 mb 0.00 in0.0 mm 0.00 in0.0 mm 0.00 in0.0 mm
10:25 AM 22.1°F-5.5°C 15.7°F-9.1°C 76% Calm Calm -- 30.46 in1031.5 mb 0.00 in0.0 mm 0.00 in0.0 mm 0.00 in0.0 mm
10:30 AM 22.2°F-5.4°C 15.8°F-9.0°C 76% Calm Calm -- 30.47 in1031.8 mb 0.00 in0.0 mm 0.00 in0.0 mm 0.00 in0.0 mm
10:35 AM 22.2°F-5.4°C 15.5°F-9.2°C 75% Calm Calm -- 30.47 in1031.8 mb 0.00 in0.0 mm 0.00 in0.0 mm 0.00 in0.0 mm
10:40 AM 22.3°F-5.4°C 15.6°F-9.1°C 75% Calm Calm -- 30.47 in1031.8 mb 0.00 in0.0 mm 0.00 in0.0 mm 0.00 in0.0 mm
10:45 AM 22.4°F-5.3°C 16.0°F-8.9°C 76% 2.0 mph WNW3.2 kmh WNW 2.0 mph3.2 kmh 30.47 in1031.8 mb 0.00 in0.0 mm 0.00 in0.0 mm 0.00 in0.0 mm
10:50 AM 22.6°F-5.2°C 16.2°F-8.8°C 76% 1.0 mph WNW1.6 kmh WNW 3.0 mph4.8 kmh 30.48 in1032.2 mb 0.00 in0.0 mm 0.00 in0.0 mm 0.00 in0.0 mm
10:55 AM 22.8°F-5.1°C 16.4°F-8.7°C 76% 2.0 mph NW3.2 kmh NW 3.0 mph4.8 kmh 30.48 in1032.2 mb 0.00 in0.0 mm 0.00 in0.0 mm 0.00 in0.0 mm
11:00 AM 23.0°F-5.0°C 16.6°F-8.6°C 76% 3.0 mph WNW4.8 kmh WNW 5.0 mph8.0 kmh 30.48 in1032.2 mb 0.00 in0.0 mm 0.00 in0.0 mm 0.00 in0.0 mm
11:05 AM 23.1°F-4.9°C 16.4°F-8.7°C 75% Calm Calm 2.0 mph3.2 kmh 30.48 in1032.2 mb 0.00 in0.0 mm 0.00 in0.0 mm 0.00 in0.0 mm
11:10 AM 23.1°F-4.9°C 16.4°F-8.7°C 75% Calm Calm 4.0 mph6.4 kmh 30.48 in1032.2 mb 0.00 in0.0 mm 0.00 in0.0 mm 0.00 in0.0 mm
11:15 AM 23.1°F-4.9°C 16.7°F-8.5°C 76% 3.0 mph W4.8 kmh W 4.0 mph6.4 kmh 30.48 in1032.2 mb 0.00 in0.0 mm 0.00 in0.0 mm 0.00 in0.0 mm
11:20 AM 23.2°F-4.9°C 16.5°F-8.6°C 75% 3.0 mph WNW4.8 kmh WNW 4.0 mph6.4 kmh 30.48 in1032.2 mb 0.00 in0.0 mm 0.00 in0.0 mm 0.00 in0.0 mm
11:25 AM 23.4°F-4.8°C 17.0°F-8.3°C 76% 2.0 mph N3.2 kmh N 5.0 mph8.0 kmh 30.49 in1032.5 mb 0.00 in0.0 mm 0.00 in0.0 mm 0.00 in0.0 mm
11:29 AM 23.5°F-4.7°C 16.8°F-8.4°C 75% 2.0 mph N3.2 kmh N 5.0 mph8.0 kmh 30.49 in1032.5 mb 0.00 in0.0 mm 0.00 in0.0 mm 0.00 in0.0 mm
11:35 AM 23.6°F-4.7°C 17.2°F-8.2°C 76% 1.0 mph NNW1.6 kmh NNW 2.0 mph3.2 kmh 30.49 in1032.5 mb 0.00 in0.0 mm 0.00 in0.0 mm 0.00 in0.0 mm
11:40 AM 23.9°F-4.5°C 17.5°F-8.1°C 76% 2.0 mph NW3.2 kmh NW 3.0 mph4.8 kmh 30.49 in1032.5 mb 0.00 in0.0 mm 0.00 in0.0 mm 0.00 in0.0 mm
11:45 AM 24.1°F-4.4°C 17.3°F-8.2°C 75% 2.0 mph NNW3.2 kmh NNW 4.0 mph6.4 kmh 30.49 in1032.5 mb 0.00 in0.0 mm 0.00 in0.0 mm 0.00 in0.0 mm
11:50 AM 24.2°F-4.3°C 17.4°F-8.1°C 75% 3.0 mph NNW4.8 kmh NNW 6.0 mph9.7 kmh 30.49 in1032.5 mb 0.00 in0.0 mm 0.00 in0.0 mm 0.00 in0.0 mm
11:55 AM 24.2°F-4.3°C 17.4°F-8.1°C 75% 5.0 mph N8.0 kmh N 6.0 mph9.7 kmh 30.49 in1032.5 mb 0.00 in0.0 mm 0.00 in0.0 mm 0.00 in0.0 mm
12:00 PM 24.1°F-4.4°C 17.3°F-8.2°C 75% 3.0 mph NNW4.8 kmh NNW 5.0 mph8.0 kmh 30.49 in1032.5 mb 0.00 in0.0 mm 0.00 in0.0 mm 0.00 in0.0 mm
12:04 PM 24.3°F-4.3°C 17.5°F-8.1°C 75% Calm Calm 3.0 mph4.8 kmh 30.49 in1032.5 mb 0.00 in0.0 mm 0.00 in0.0 mm 0.00 in0.0 mm
12:10 PM 24.6°F-4.1°C 17.8°F-7.9°C 75% Calm Calm 4.0 mph6.4 kmh 30.49 in1032.5 mb 0.00 in0.0 mm 0.00 in0.0 mm 0.00 in0.0 mm
12:15 PM 24.9°F-3.9°C 18.1°F-7.7°C 75% 1.0 mph NW1.6 kmh NW 2.0 mph3.2 kmh 30.49 in1032.5 mb 0.00 in0.0 mm 0.00 in0.0 mm 0.00 in0.0 mm
12:20 PM 24.9°F-3.9°C 17.8°F-7.9°C 74% 1.0 mph N1.6 kmh N 5.0 mph8.0 kmh 30.49 in1032.5 mb 0.00 in0.0 mm 0.00 in0.0 mm 0.00 in0.0 mm
12:25 PM 24.9°F-3.9°C 17.8°F-7.9°C 74% 2.0 mph N3.2 kmh N 5.0 mph8.0 kmh 30.49 in1032.5 mb 0.00 in0.0 mm 0.00 in0.0 mm 0.00 in0.0 mm
12:30 PM 25.1°F-3.8°C 18.0°F-7.8°C 74% 4.0 mph N6.4 kmh N 6.0 mph9.7 kmh 30.49 in1032.5 mb 0.00 in0.0 mm 0.00 in0.0 mm 0.00 in0.0 mm
12:35 PM 25.0°F-3.9°C 17.9°F-7.8°C 74% 4.0 mph N6.4 kmh N 4.0 mph6.4 kmh 30.48 in1032.2 mb 0.00 in0.0 mm 0.00 in0.0 mm 0.00 in0.0 mm
12:40 PM 24.9°F-3.9°C 17.8°F-7.9°C 74% Calm Calm 4.0 mph6.4 kmh 30.48 in1032.2 mb 0.00 in0.0 mm 0.00 in0.0 mm 0.00 in0.0 mm
12:45 PM 25.1°F-3.8°C 18.0°F-7.8°C 74% Calm Calm 5.0 mph8.0 kmh 30.48 in1032.2 mb 0.00 in0.0 mm 0.00 in0.0 mm 0.00 in0.0 mm
12:50 PM 25.3°F-3.7°C 18.2°F-7.7°C 74% 2.0 mph N3.2 kmh N 4.0 mph6.4 kmh 30.48 in1032.2 mb 0.00 in0.0 mm 0.00 in0.0 mm 0.00 in0.0 mm
12:55 PM 25.4°F-3.7°C 18.3°F-7.6°C 74% 2.0 mph NNW3.2 kmh NNW 3.0 mph4.8 kmh 30.48 in1032.2 mb 0.00 in0.0 mm 0.00 in0.0 mm 0.00 in0.0 mm
01:00 PM 25.4°F-3.7°C 18.3°F-7.6°C 74% 4.0 mph NNW6.4 kmh NNW 4.0 mph6.4 kmh 30.47 in1031.8 mb 0.00 in0.0 mm 0.00 in0.0 mm 0.00 in0.0 mm
01:05 PM 25.5°F-3.6°C 18.4°F-7.6°C 74% 2.0 mph N3.2 kmh N 5.0 mph8.0 kmh 30.47 in1031.8 mb 0.00 in0.0 mm 0.00 in0.0 mm 0.00 in0.0 mm
01:09 PM 25.4°F-3.7°C 18.3°F-7.6°C 74% 1.0 mph NNE1.6 kmh NNE 5.0 mph8.0 kmh 30.46 in1031.5 mb 0.00 in0.0 mm 0.00 in0.0 mm 0.00 in0.0 mm
01:15 PM 25.3°F-3.7°C 18.2°F-7.7°C 74% 2.0 mph NE3.2 kmh NE 3.0 mph4.8 kmh 30.46 in1031.5 mb 0.00 in0.0 mm 0.00 in0.0 mm 0.00 in0.0 mm
01:20 PM 25.3°F-3.7°C 18.2°F-7.7°C 74% 5.0 mph NW8.0 kmh NW 5.0 mph8.0 kmh 30.45 in1031.2 mb 0.00 in0.0 mm 0.00 in0.0 mm 0.00 in0.0 mm
01:25 PM 25.4°F-3.7°C 18.3°F-7.6°C 74% 3.0 mph N4.8 kmh N 4.0 mph6.4 kmh 30.45 in1031.2 mb 0.00 in0.0 mm 0.00 in0.0 mm 0.00 in0.0 mm
01:30 PM 25.5°F-3.6°C 18.4°F-7.6°C 74% 1.0 mph N1.6 kmh N 4.0 mph6.4 kmh 30.45 in1031.2 mb 0.00 in0.0 mm 0.00 in0.0 mm 0.00 in0.0 mm
01:34 PM 25.6°F-3.6°C 18.5°F-7.5°C 74% 1.0 mph N1.6 kmh N 2.0 mph3.2 kmh 30.45 in1031.2 mb 0.00 in0.0 mm 0.00 in0.0 mm 0.00 in0.0 mm
01:40 PM 25.6°F-3.6°C 18.5°F-7.5°C 74% 3.0 mph NNW4.8 kmh NNW 4.0 mph6.4 kmh 30.44 in1030.8 mb 0.00 in0.0 mm 0.00 in0.0 mm 0.00 in0.0 mm
01:45 PM 25.7°F-3.5°C 18.6°F-7.4°C 74% 1.0 mph NNW1.6 kmh NNW 4.0 mph6.4 kmh 30.44 in1030.8 mb 0.00 in0.0 mm 0.00 in0.0 mm 0.00 in0.0 mm
01:50 PM 25.9°F-3.4°C 18.8°F-7.3°C 74% 1.0 mph N1.6 kmh N 3.0 mph4.8 kmh 30.45 in1031.2 mb 0.00 in0.0 mm 0.00 in0.0 mm 0.00 in0.0 mm
01:55 PM 25.9°F-3.4°C 18.5°F-7.5°C 73% 2.0 mph NNW3.2 kmh NNW 5.0 mph8.0 kmh 30.44 in1030.8 mb 0.00 in0.0 mm 0.00 in0.0 mm 0.00 in0.0 mm
02:00 PM 25.9°F-3.4°C 18.5°F-7.5°C 73% Calm Calm 3.0 mph4.8 kmh 30.44 in1030.8 mb 0.00 in0.0 mm 0.00 in0.0 mm 0.00 in0.0 mm
02:05 PM 26.0°F-3.3°C 18.6°F-7.4°C 73% Calm Calm 2.0 mph3.2 kmh 30.44 in1030.8 mb 0.00 in0.0 mm 0.00 in0.0 mm 0.00 in0.0 mm
02:10 PM 26.2°F-3.2°C 19.1°F-7.2°C 74% Calm Calm 4.0 mph6.4 kmh 30.44 in1030.8 mb 0.00 in0.0 mm 0.00 in0.0 mm 0.00 in0.0 mm
02:15 PM 26.3°F-3.2°C 18.8°F-7.3°C 73% 3.0 mph NNW4.8 kmh NNW 4.0 mph6.4 kmh 30.44 in1030.8 mb 0.00 in0.0 mm 0.00 in0.0 mm 0.00 in0.0 mm
02:20 PM 26.3°F-3.2°C 18.8°F-7.3°C 73% Calm Calm 1.0 mph1.6 kmh 30.44 in1030.8 mb 0.00 in0.0 mm 0.00 in0.0 mm 0.00 in0.0 mm
02:24 PM 26.4°F-3.1°C 18.9°F-7.3°C 73% Calm Calm 3.0 mph4.8 kmh 30.43 in1030.5 mb 0.00 in0.0 mm 0.00 in0.0 mm 0.00 in0.0 mm
02:30 PM 26.5°F-3.1°C 19.0°F-7.2°C 73% Calm Calm 3.0 mph4.8 kmh 30.43 in1030.5 mb 0.00 in0.0 mm 0.00 in0.0 mm 0.00 in0.0 mm
02:35 PM 26.7°F-2.9°C 19.2°F-7.1°C 73% 3.0 mph NW4.8 kmh NW 5.0 mph8.0 kmh 30.44 in1030.8 mb 0.00 in0.0 mm 0.00 in0.0 mm 0.00 in0.0 mm
02:40 PM 26.8°F-2.9°C 19.3°F-7.1°C 73% Calm Calm 3.0 mph4.8 kmh 30.44 in1030.8 mb 0.00 in0.0 mm 0.00 in0.0 mm 0.00 in0.0 mm
02:44 PM 27.0°F-2.8°C 19.2°F-7.1°C 72% Calm Calm 6.0 mph9.7 kmh 30.43 in1030.5 mb 0.00 in0.0 mm 0.00 in0.0 mm 0.00 in0.0 mm
02:50 PM 26.7°F-2.9°C 18.9°F-7.3°C 72% Calm Calm 4.0 mph6.4 kmh 30.43 in1030.5 mb 0.00 in0.0 mm 0.00 in0.0 mm 0.00 in0.0 mm
02:55 PM 26.8°F-2.9°C 19.3°F-7.1°C 73% 1.0 mph NW1.6 kmh NW 1.0 mph1.6 kmh 30.43 in1030.5 mb 0.00 in0.0 mm 0.00 in0.0 mm 0.00 in0.0 mm
03:00 PM 27.0°F-2.8°C 19.5°F-6.9°C 73% 2.0 mph NW3.2 kmh NW 4.0 mph6.4 kmh 30.43 in1030.5 mb 0.00 in0.0 mm 0.00 in0.0 mm 0.00 in0.0 mm
03:05 PM 27.1°F-2.7°C 19.6°F-6.9°C 73% Calm Calm -- 30.43 in1030.5 mb 0.00 in0.0 mm 0.00 in0.0 mm 0.00 in0.0 mm
03:09 PM 27.3°F-2.6°C 19.8°F-6.8°C 73% Calm Calm -- 30.43 in1030.5 mb 0.00 in0.0 mm 0.00 in0.0 mm 0.00 in0.0 mm
03:15 PM 27.6°F-2.4°C 20.1°F-6.6°C 73% 2.0 mph WSW3.2 kmh WSW 4.0 mph6.4 kmh 30.43 in1030.5 mb 0.00 in0.0 mm 0.00 in0.0 mm 0.00 in0.0 mm
03:19 PM 27.5°F-2.5°C 19.7°F-6.8°C 72% 1.0 mph NW1.6 kmh NW 5.0 mph8.0 kmh 30.43 in1030.5 mb 0.00 in0.0 mm 0.00 in0.0 mm 0.00 in0.0 mm
03:25 PM 27.2°F-2.7°C 19.7°F-6.8°C 73% 5.0 mph N8.0 kmh N 5.0 mph8.0 kmh 30.43 in1030.5 mb 0.00 in0.0 mm 0.00 in0.0 mm 0.00 in0.0 mm
03:30 PM 27.0°F-2.8°C 19.8°F-6.8°C 74% 1.0 mph N1.6 kmh N 3.0 mph4.8 kmh 30.43 in1030.5 mb 0.00 in0.0 mm 0.00 in0.0 mm 0.00 in0.0 mm
03:35 PM 27.2°F-2.7°C 20.0°F-6.7°C 74% 3.0 mph NNW4.8 kmh NNW 5.0 mph8.0 kmh 30.43 in1030.5 mb 0.00 in0.0 mm 0.00 in0.0 mm 0.00 in0.0 mm
03:40 PM 27.5°F-2.5°C 20.0°F-6.7°C 73% 2.0 mph WNW3.2 kmh WNW 3.0 mph4.8 kmh 30.43 in1030.5 mb 0.00 in0.0 mm 0.00 in0.0 mm 0.00 in0.0 mm
03:45 PM 27.7°F-2.4°C 20.2°F-6.6°C 73% 3.0 mph NNW4.8 kmh NNW 3.0 mph4.8 kmh 30.42 in1030.1 mb 0.00 in0.0 mm 0.00 in0.0 mm 0.00 in0.0 mm
03:50 PM 27.7°F-2.4°C 19.9°F-6.7°C 72% 1.0 mph NW1.6 kmh NW 4.0 mph6.4 kmh 30.42 in1030.1 mb 0.00 in0.0 mm 0.00 in0.0 mm 0.00 in0.0 mm
03:55 PM 27.7°F-2.4°C 19.9°F-6.7°C 72% 2.0 mph NNW3.2 kmh NNW 8.0 mph12.9 kmh 30.42 in1030.1 mb 0.00 in0.0 mm 0.00 in0.0 mm 0.00 in0.0 mm
04:00 PM 27.7°F-2.4°C 20.2°F-6.6°C 73% 2.0 mph NW3.2 kmh NW 4.0 mph6.4 kmh 30.42 in1030.1 mb 0.00 in0.0 mm 0.00 in0.0 mm 0.00 in0.0 mm
04:04 PM 27.7°F-2.4°C 19.9°F-6.7°C 72% 2.0 mph NNW3.2 kmh NNW 3.0 mph4.8 kmh 30.42 in1030.1 mb 0.00 in0.0 mm 0.00 in0.0 mm 0.00 in0.0 mm
04:10 PM 27.8°F-2.3°C 20.3°F-6.5°C 73% 2.0 mph N3.2 kmh N 5.0 mph8.0 kmh 30.42 in1030.1 mb 0.00 in0.0 mm 0.00 in0.0 mm 0.00 in0.0 mm
04:14 PM 27.8°F-2.3°C 20.0°F-6.7°C 72% 2.0 mph NW3.2 kmh NW 4.0 mph6.4 kmh 30.42 in1030.1 mb 0.00 in0.0 mm 0.00 in0.0 mm 0.00 in0.0 mm
04:20 PM 27.7°F-2.4°C 19.9°F-6.7°C 72% 2.0 mph NNW3.2 kmh NNW 5.0 mph8.0 kmh 30.42 in1030.1 mb 0.00 in0.0 mm 0.00 in0.0 mm 0.00 in0.0 mm
04:25 PM 27.7°F-2.4°C 20.2°F-6.6°C 73% 3.0 mph N4.8 kmh N 4.0 mph6.4 kmh 30.42 in1030.1 mb 0.00 in0.0 mm 0.00 in0.0 mm 0.00 in0.0 mm
04:30 PM 27.7°F-2.4°C 20.2°F-6.6°C 73% 8.0 mph N12.9 kmh N 10.0 mph16.1 kmh 30.42 in1030.1 mb 0.00 in0.0 mm 0.00 in0.0 mm 0.00 in0.0 mm
04:35 PM 27.7°F-2.4°C 20.2°F-6.6°C 73% 4.0 mph N6.4 kmh N 7.0 mph11.3 kmh 30.42 in1030.1 mb 0.00 in0.0 mm 0.00 in0.0 mm 0.00 in0.0 mm
04:40 PM 27.7°F-2.4°C 19.9°F-6.7°C 72% 4.0 mph NE6.4 kmh NE 9.0 mph14.5 kmh 30.42 in1030.1 mb 0.00 in0.0 mm 0.00 in0.0 mm 0.00 in0.0 mm
04:45 PM 27.5°F-2.5°C 19.7°F-6.8°C 72% 4.0 mph NNE6.4 kmh NNE 7.0 mph11.3 kmh 30.42 in1030.1 mb 0.00 in0.0 mm 0.00 in0.0 mm 0.00 in0.0 mm
04:50 PM 27.6°F-2.4°C 20.1°F-6.6°C 73% 4.0 mph NE6.4 kmh NE 5.0 mph8.0 kmh 30.42 in1030.1 mb 0.00 in0.0 mm 0.00 in0.0 mm 0.00 in0.0 mm
04:55 PM 27.6°F-2.4°C 20.1°F-6.6°C 73% 4.0 mph N6.4 kmh N 8.0 mph12.9 kmh 30.42 in1030.1 mb 0.00 in0.0 mm 0.00 in0.0 mm 0.00 in0.0 mm
05:00 PM 27.5°F-2.5°C 20.0°F-6.7°C 73% 3.0 mph N4.8 kmh N 5.0 mph8.0 kmh 30.42 in1030.1 mb 0.00 in0.0 mm 0.00 in0.0 mm 0.00 in0.0 mm
05:05 PM 27.6°F-2.4°C 20.1°F-6.6°C 73% 3.0 mph NW4.8 kmh NW 5.0 mph8.0 kmh 30.42 in1030.1 mb 0.00 in0.0 mm 0.00 in0.0 mm 0.00 in0.0 mm
05:10 PM 27.8°F-2.3°C 20.3°F-6.5°C 73% 2.0 mph NNW3.2 kmh NNW 4.0 mph6.4 kmh 30.42 in1030.1 mb 0.00 in0.0 mm 0.00 in0.0 mm 0.00 in0.0 mm
05:15 PM 27.8°F-2.3°C 20.3°F-6.5°C 73% 1.0 mph N1.6 kmh N 9.0 mph14.5 kmh 30.42 in1030.1 mb 0.00 in0.0 mm 0.00 in0.0 mm 0.00 in0.0 mm
05:20 PM 27.7°F-2.4°C 20.2°F-6.6°C 73% 4.0 mph NNE6.4 kmh NNE 7.0 mph11.3 kmh 30.43 in1030.5 mb 0.00 in0.0 mm 0.00 in0.0 mm 0.00 in0.0 mm
05:25 PM 27.6°F-2.4°C 20.4°F-6.4°C 74% 4.0 mph N6.4 kmh N 4.0 mph6.4 kmh 30.42 in1030.1 mb 0.00 in0.0 mm 0.00 in0.0 mm 0.00 in0.0 mm
05:30 PM 27.6°F-2.4°C 20.4°F-6.4°C 74% Calm Calm 5.0 mph8.0 kmh 30.42 in1030.1 mb 0.00 in0.0 mm 0.00 in0.0 mm 0.00 in0.0 mm
05:35 PM 27.7°F-2.4°C 20.5°F-6.4°C 74% 1.0 mph NNE1.6 kmh NNE 4.0 mph6.4 kmh 30.42 in1030.1 mb 0.00 in0.0 mm 0.00 in0.0 mm 0.00 in0.0 mm
05:40 PM 27.7°F-2.4°C 20.2°F-6.6°C 73% 3.0 mph NNE4.8 kmh NNE 4.0 mph6.4 kmh 30.43 in1030.5 mb 0.00 in0.0 mm 0.00 in0.0 mm 0.00 in0.0 mm
05:45 PM 27.7°F-2.4°C 20.5°F-6.4°C 74% Calm Calm 2.0 mph3.2 kmh 30.43 in1030.5 mb 0.00 in0.0 mm 0.00 in0.0 mm 0.00 in0.0 mm
05:49 PM 27.7°F-2.4°C 20.5°F-6.4°C 74% 4.0 mph NE6.4 kmh NE 5.0 mph8.0 kmh 30.42 in1030.1 mb 0.00 in0.0 mm 0.00 in0.0 mm 0.00 in0.0 mm
05:54 PM 27.7°F-2.4°C 20.5°F-6.4°C 74% 4.0 mph NNE6.4 kmh NNE 8.0 mph12.9 kmh 30.42 in1030.1 mb 0.00 in0.0 mm 0.00 in0.0 mm 0.00 in0.0 mm
05:59 PM 27.7°F-2.4°C 20.5°F-6.4°C 74% 2.0 mph N3.2 kmh N 4.0 mph6.4 kmh 30.43 in1030.5 mb 0.00 in0.0 mm 0.00 in0.0 mm 0.00 in0.0 mm
06:05 PM 27.5°F-2.5°C 20.6°F-6.3°C 75% 4.0 mph NNE6.4 kmh NNE 7.0 mph11.3 kmh 30.43 in1030.5 mb 0.00 in0.0 mm 0.00 in0.0 mm 0.00 in0.0 mm
06:09 PM 27.3°F-2.6°C 20.8°F-6.2°C 76% 3.0 mph N4.8 kmh N 5.0 mph8.0 kmh 30.43 in1030.5 mb 0.00 in0.0 mm 0.00 in0.0 mm 0.00 in0.0 mm
06:15 PM 27.2°F-2.7°C 21.3°F-5.9°C 78% Calm Calm 1.0 mph1.6 kmh 30.43 in1030.5 mb 0.00 in0.0 mm 0.00 in0.0 mm 0.00 in0.0 mm
06:20 PM 27.2°F-2.7°C 21.3°F-5.9°C 78% 1.0 mph NNW1.6 kmh NNW 2.0 mph3.2 kmh 30.43 in1030.5 mb 0.00 in0.0 mm 0.00 in0.0 mm 0.00 in0.0 mm
06:25 PM 27.1°F-2.7°C 21.2°F-6.0°C 78% 2.0 mph N3.2 kmh N 6.0 mph9.7 kmh 30.43 in1030.5 mb 0.00 in0.0 mm 0.00 in0.0 mm 0.00 in0.0 mm
06:30 PM 27.1°F-2.7°C 20.9°F-6.2°C 77% 4.0 mph NNW6.4 kmh NNW 5.0 mph8.0 kmh 30.43 in1030.5 mb 0.00 in0.0 mm 0.00 in0.0 mm 0.00 in0.0 mm
06:34 PM 27.2°F-2.7°C 20.3°F-6.5°C 75% Calm Calm 6.0 mph9.7 kmh 30.43 in1030.5 mb 0.00 in0.0 mm 0.00 in0.0 mm 0.00 in0.0 mm
06:40 PM 27.2°F-2.7°C 20.3°F-6.5°C 75% Calm Calm -- 30.43 in1030.5 mb 0.00 in0.0 mm 0.00 in0.0 mm 0.00 in0.0 mm
06:45 PM 27.2°F-2.7°C 20.7°F-6.3°C 76% Calm Calm 4.0 mph6.4 kmh 30.43 in1030.5 mb 0.00 in0.0 mm 0.00 in0.0 mm 0.00 in0.0 mm
06:50 PM 27.0°F-2.8°C 20.8°F-6.2°C 77% Calm Calm -- 30.43 in1030.5 mb 0.00 in0.0 mm 0.00 in0.0 mm 0.00 in0.0 mm
06:55 PM 26.9°F-2.8°C 21.0°F-6.1°C 78% Calm Calm -- 30.42 in1030.1 mb 0.00 in0.0 mm 0.00 in0.0 mm 0.00 in0.0 mm
06:59 PM 26.9°F-2.8°C 21.3°F-5.9°C 79% Calm Calm -- 30.42 in1030.1 mb 0.00 in0.0 mm 0.00 in0.0 mm 0.00 in0.0 mm
07:05 PM 26.9°F-2.8°C 21.0°F-6.1°C 78% Calm Calm -- 30.42 in1030.1 mb 0.00 in0.0 mm 0.00 in0.0 mm 0.00 in0.0 mm
07:09 PM 26.9°F-2.8°C 21.3°F-5.9°C 79% Calm Calm -- 30.42 in1030.1 mb 0.00 in0.0 mm 0.00 in0.0 mm 0.00 in0.0 mm
07:15 PM 26.9°F-2.8°C 21.3°F-5.9°C 79% Calm Calm -- 30.42 in1030.1 mb 0.00 in0.0 mm 0.00 in0.0 mm 0.00 in0.0 mm
07:20 PM 26.8°F-2.9°C 21.2°F-6.0°C 79% Calm Calm -- 30.42 in1030.1 mb 0.00 in0.0 mm 0.00 in0.0 mm 0.00 in0.0 mm
07:25 PM 26.9°F-2.8°C 21.3°F-5.9°C 79% Calm Calm -- 30.42 in1030.1 mb 0.00 in0.0 mm 0.00 in0.0 mm 0.00 in0.0 mm
07:30 PM 26.8°F-2.9°C 21.5°F-5.8°C 80% Calm Calm -- 30.42 in1030.1 mb 0.00 in0.0 mm 0.00 in0.0 mm 0.00 in0.0 mm
07:35 PM 26.8°F-2.9°C 21.2°F-6.0°C 79% Calm Calm -- 30.43 in1030.5 mb 0.00 in0.0 mm 0.00 in0.0 mm 0.00 in0.0 mm
07:40 PM 26.8°F-2.9°C 21.2°F-6.0°C 79% Calm Calm -- 30.43 in1030.5 mb 0.00 in0.0 mm 0.00 in0.0 mm 0.00 in0.0 mm
07:44 PM 26.8°F-2.9°C 21.2°F-6.0°C 79% Calm Calm -- 30.43 in1030.5 mb 0.00 in0.0 mm 0.00 in0.0 mm 0.00 in0.0 mm
07:49 PM 26.8°F-2.9°C 21.5°F-5.8°C 80% Calm Calm -- 30.43 in1030.5 mb 0.00 in0.0 mm 0.00 in0.0 mm 0.00 in0.0 mm
07:55 PM 26.8°F-2.9°C 21.2°F-6.0°C 79% Calm Calm -- 30.43 in1030.5 mb 0.00 in0.0 mm 0.00 in0.0 mm 0.00 in0.0 mm
08:00 PM 26.9°F-2.8°C 21.3°F-5.9°C 79% Calm Calm -- 30.43 in1030.5 mb 0.00 in0.0 mm 0.00 in0.0 mm 0.00 in0.0 mm
08:05 PM 27.0°F-2.8°C 21.1°F-6.1°C 78% Calm Calm -- 30.43 in1030.5 mb 0.00 in0.0 mm 0.00 in0.0 mm 0.00 in0.0 mm
08:10 PM 27.1°F-2.7°C 20.9°F-6.2°C 77% Calm Calm 2.0 mph3.2 kmh 30.43 in1030.5 mb 0.00 in0.0 mm 0.00 in0.0 mm 0.00 in0.0 mm
08:15 PM 27.1°F-2.7°C 20.9°F-6.2°C 77% Calm Calm -- 30.43 in1030.5 mb 0.00 in0.0 mm 0.00 in0.0 mm 0.00 in0.0 mm
08:20 PM 27.1°F-2.7°C 20.9°F-6.2°C 77% Calm Calm -- 30.43 in1030.5 mb 0.00 in0.0 mm 0.00 in0.0 mm 0.00 in0.0 mm
08:24 PM 27.1°F-2.7°C 20.9°F-6.2°C 77% Calm Calm -- 30.43 in1030.5 mb 0.00 in0.0 mm 0.00 in0.0 mm 0.00 in0.0 mm
08:30 PM 27.1°F-2.7°C 20.9°F-6.2°C 77% Calm Calm -- 30.43 in1030.5 mb 0.00 in0.0 mm 0.00 in0.0 mm 0.00 in0.0 mm
08:35 PM 27.1°F-2.7°C 20.9°F-6.2°C 77% Calm Calm -- 30.43 in1030.5 mb 0.00 in0.0 mm 0.00 in0.0 mm 0.00 in0.0 mm
08:40 PM 27.1°F-2.7°C 21.2°F-6.0°C 78% Calm Calm -- 30.43 in1030.5 mb 0.00 in0.0 mm 0.00 in0.0 mm 0.00 in0.0 mm
08:45 PM 27.1°F-2.7°C 21.2°F-6.0°C 78% Calm Calm -- 30.43 in1030.5 mb 0.00 in0.0 mm 0.00 in0.0 mm 0.00 in0.0 mm
08:50 PM 27.0°F-2.8°C 21.4°F-5.9°C 79% Calm Calm -- 30.43 in1030.5 mb 0.00 in0.0 mm 0.00 in0.0 mm 0.00 in0.0 mm
08:55 PM 27.0°F-2.8°C 21.4°F-5.9°C 79% Calm Calm -- 30.43 in1030.5 mb 0.00 in0.0 mm 0.00 in0.0 mm 0.00 in0.0 mm
09:00 PM 27.0°F-2.8°C 21.7°F-5.7°C 80% Calm Calm -- 30.44 in1030.8 mb 0.00 in0.0 mm 0.00 in0.0 mm 0.00 in0.0 mm
09:05 PM 27.0°F-2.8°C 21.7°F-5.7°C 80% Calm Calm -- 30.44 in1030.8 mb 0.00 in0.0 mm 0.00 in0.0 mm 0.00 in0.0 mm
09:10 PM 27.0°F-2.8°C 21.7°F-5.7°C 80% 3.0 mph NNE4.8 kmh NNE 3.0 mph4.8 kmh 30.44 in1030.8 mb 0.00 in0.0 mm 0.00 in0.0 mm 0.00 in0.0 mm
09:15 PM 26.9°F-2.8°C 21.6°F-5.8°C 80% 3.0 mph NNE4.8 kmh NNE 4.0 mph6.4 kmh 30.44 in1030.8 mb 0.00 in0.0 mm 0.00 in0.0 mm 0.00 in0.0 mm
09:20 PM 26.7°F-2.9°C 21.7°F-5.7°C 81% Calm Calm 3.0 mph4.8 kmh 30.44 in1030.8 mb 0.00 in0.0 mm 0.00 in0.0 mm 0.00 in0.0 mm
09:25 PM 26.7°F-2.9°C 21.7°F-5.7°C 81% Calm Calm -- 30.44 in1030.8 mb 0.00 in0.0 mm 0.00 in0.0 mm 0.00 in0.0 mm
09:30 PM 26.6°F-3.0°C 21.6°F-5.8°C 81% Calm Calm 1.0 mph1.6 kmh 30.44 in1030.8 mb 0.00 in0.0 mm 0.00 in0.0 mm 0.00 in0.0 mm
09:34 PM 26.7°F-2.9°C 21.7°F-5.7°C 81% Calm Calm -- 30.44 in1030.8 mb 0.00 in0.0 mm 0.00 in0.0 mm 0.00 in0.0 mm
09:40 PM 26.7°F-2.9°C 21.7°F-5.7°C 81% Calm Calm -- 30.44 in1030.8 mb 0.00 in0.0 mm 0.00 in0.0 mm 0.00 in0.0 mm
09:44 PM 26.8°F-2.9°C 21.8°F-5.7°C 81% Calm Calm -- 30.44 in1030.8 mb 0.00 in0.0 mm 0.00 in0.0 mm 0.00 in0.0 mm
09:50 PM 26.9°F-2.8°C 21.6°F-5.8°C 80% Calm Calm 1.0 mph1.6 kmh 30.44 in1030.8 mb 0.00 in0.0 mm 0.00 in0.0 mm 0.00 in0.0 mm
09:54 PM 26.8°F-2.9°C 21.2°F-6.0°C 79% Calm Calm 3.0 mph4.8 kmh 30.44 in1030.8 mb 0.00 in0.0 mm 0.00 in0.0 mm 0.00 in0.0 mm
09:59 PM 26.8°F-2.9°C 21.5°F-5.8°C 80% Calm Calm -- 30.44 in1030.8 mb 0.00 in0.0 mm 0.00 in0.0 mm 0.00 in0.0 mm
10:05 PM 26.8°F-2.9°C 21.2°F-6.0°C 79% Calm Calm -- 30.44 in1030.8 mb 0.00 in0.0 mm 0.00 in0.0 mm 0.00 in0.0 mm
10:09 PM 26.9°F-2.8°C 21.3°F-5.9°C 79% Calm Calm -- 30.44 in1030.8 mb 0.00 in0.0 mm 0.00 in0.0 mm 0.00 in0.0 mm
10:15 PM 27.0°F-2.8°C 21.4°F-5.9°C 79% 2.0 mph N3.2 kmh N 4.0 mph6.4 kmh 30.44 in1030.8 mb 0.00 in0.0 mm 0.00 in0.0 mm 0.00 in0.0 mm
10:20 PM 26.9°F-2.8°C 21.3°F-5.9°C 79% Calm Calm 3.0 mph4.8 kmh 30.44 in1030.8 mb 0.00 in0.0 mm 0.00 in0.0 mm 0.00 in0.0 mm
10:25 PM 26.9°F-2.8°C 21.0°F-6.1°C 78% Calm Calm 2.0 mph3.2 kmh 30.44 in1030.8 mb 0.00 in0.0 mm 0.00 in0.0 mm 0.00 in0.0 mm
10:30 PM 26.9°F-2.8°C 21.0°F-6.1°C 78% 2.0 mph NNE3.2 kmh NNE 3.0 mph4.8 kmh 30.43 in1030.5 mb 0.00 in0.0 mm 0.00 in0.0 mm 0.00 in0.0 mm
10:35 PM 26.9°F-2.8°C 20.7°F-6.3°C 77% Calm Calm 2.0 mph3.2 kmh 30.44 in1030.8 mb 0.00 in0.0 mm 0.00 in0.0 mm 0.00 in0.0 mm
10:40 PM 27.0°F-2.8°C 20.8°F-6.2°C 77% Calm Calm -- 30.44 in1030.8 mb 0.00 in0.0 mm 0.00 in0.0 mm 0.00 in0.0 mm
10:45 PM 27.0°F-2.8°C 20.8°F-6.2°C 77% Calm Calm -- 30.44 in1030.8 mb 0.00 in0.0 mm 0.00 in0.0 mm 0.00 in0.0 mm
10:50 PM 27.0°F-2.8°C 20.8°F-6.2°C 77% Calm Calm -- 30.44 in1030.8 mb 0.00 in0.0 mm 0.00 in0.0 mm 0.00 in0.0 mm
10:55 PM 27.0°F-2.8°C 20.8°F-6.2°C 77% Calm Calm -- 30.44 in1030.8 mb 0.00 in0.0 mm 0.00 in0.0 mm 0.00 in0.0 mm
11:00 PM 27.1°F-2.7°C 20.9°F-6.2°C 77% Calm Calm -- 30.44 in1030.8 mb 0.00 in0.0 mm 0.00 in0.0 mm 0.00 in0.0 mm
11:05 PM 27.1°F-2.7°C 20.9°F-6.2°C 77% 2.0 mph NNE3.2 kmh NNE 2.0 mph3.2 kmh 30.44 in1030.8 mb 0.00 in0.0 mm 0.00 in0.0 mm 0.00 in0.0 mm
11:10 PM 27.0°F-2.8°C 20.8°F-6.2°C 77% Calm Calm 4.0 mph6.4 kmh 30.44 in1030.8 mb 0.00 in0.0 mm 0.00 in0.0 mm 0.00 in0.0 mm
11:15 PM 27.0°F-2.8°C 20.8°F-6.2°C 77% Calm Calm -- 30.44 in1030.8 mb 0.00 in0.0 mm 0.00 in0.0 mm 0.00 in0.0 mm
11:20 PM 27.1°F-2.7°C 20.9°F-6.2°C 77% Calm Calm -- 30.44 in1030.8 mb 0.00 in0.0 mm 0.00 in0.0 mm 0.00 in0.0 mm
11:25 PM 27.0°F-2.8°C 20.8°F-6.2°C 77% 5.0 mph NE8.0 kmh NE 6.0 mph9.7 kmh 30.44 in1030.8 mb 0.00 in0.0 mm 0.00 in0.0 mm 0.00 in0.0 mm
11:30 PM 26.9°F-2.8°C 20.4°F-6.4°C 76% 1.0 mph NNE1.6 kmh NNE 3.0 mph4.8 kmh 30.44 in1030.8 mb 0.00 in0.0 mm 0.00 in0.0 mm 0.00 in0.0 mm
11:35 PM 26.9°F-2.8°C 20.7°F-6.3°C 77% 3.0 mph NE4.8 kmh NE 3.0 mph4.8 kmh 30.44 in1030.8 mb 0.00 in0.0 mm 0.00 in0.0 mm 0.00 in0.0 mm
11:40 PM 26.9°F-2.8°C 20.7°F-6.3°C 77% 2.0 mph NE3.2 kmh NE 2.0 mph3.2 kmh 30.44 in1030.8 mb 0.00 in0.0 mm 0.00 in0.0 mm 0.00 in0.0 mm
11:45 PM 27.0°F-2.8°C 20.8°F-6.2°C 77% 1.0 mph NE1.6 kmh NE 1.0 mph1.6 kmh 30.44 in1030.8 mb 0.00 in0.0 mm 0.00 in0.0 mm 0.00 in0.0 mm
11:49 PM 27.0°F-2.8°C 20.8°F-6.2°C 77% 3.0 mph NE4.8 kmh NE 4.0 mph6.4 kmh 30.44 in1030.8 mb 0.00 in0.0 mm 0.00 in0.0 mm 0.00 in0.0 mm
11:55 PM 27.0°F-2.8°C 20.8°F-6.2°C 77% 3.0 mph NNW4.8 kmh NNW 4.0 mph6.4 kmh 30.44 in1030.8 mb 0.00 in0.0 mm 0.00 in0.0 mm 0.00 in0.0 mm